createdAt,value
2022-09-30T00:01:52.695Z,100727.88
2022-09-30T00:04:56.543Z,100728.06
2022-09-30T00:08:00.035Z,100722.16
2022-09-30T00:11:08.479Z,100725.81
2022-09-30T00:14:19.111Z,100722.50
2022-09-30T00:17:22.735Z,100724.34
2022-09-30T00:20:26.303Z,100734.94
2022-09-30T00:23:30.162Z,100738.50
2022-09-30T00:26:37.131Z,100736.88
2022-09-30T00:29:40.773Z,100731.75
2022-09-30T00:32:44.362Z,100729.22
2022-09-30T00:35:47.994Z,100730.06
2022-09-30T00:38:51.584Z,100729.38
2022-09-30T00:42:01.564Z,100742.59
2022-09-30T00:45:09.624Z,100743.59
2022-09-30T00:48:20.445Z,100749.81
2022-09-30T00:51:34.161Z,100743.91
2022-09-30T00:54:37.836Z,100738.69
2022-09-30T00:57:42.793Z,100734.31
2022-09-30T01:00:46.770Z,100739.56
2022-09-30T01:03:55.558Z,100739.72
2022-09-30T01:07:02.982Z,100739.84
2022-09-30T01:10:07.630Z,100742.50
2022-09-30T01:13:15.028Z,100742.66
2022-09-30T01:16:49.932Z,100744.50
2022-09-30T01:20:50.671Z,100730.69
2022-09-30T01:24:47.392Z,100744.69
2022-09-30T01:28:40.891Z,100751.63
2022-09-30T01:31:56.943Z,100746.47
2022-09-30T01:35:18.382Z,100744.81
2022-09-30T01:38:29.988Z,100751.81
2022-09-30T01:41:48.728Z,100744.06
2022-09-30T01:45:03.838Z,100743.19
2022-09-30T01:48:19.739Z,100741.53
2022-09-30T01:51:34.331Z,100742.47
2022-09-30T01:54:47.963Z,100743.34
2022-09-30T01:58:02.102Z,100760.09
2022-09-30T02:01:13.896Z,100766.31
2022-09-30T02:04:26.376Z,100762.94
2022-09-30T02:07:38.059Z,100761.19
2022-09-30T02:10:53.193Z,100756.00
2022-09-30T02:14:06.115Z,100752.44
2022-09-30T02:17:19.882Z,100754.28
2022-09-30T02:20:29.001Z,100755.13
2022-09-30T02:23:38.815Z,100759.56
2022-09-30T02:26:46.721Z,100769.25
2022-09-30T02:29:58.943Z,100777.97
2022-09-30T02:33:11.361Z,100780.50
2022-09-30T02:36:23.226Z,100781.44
2022-09-30T02:39:39.332Z,100789.13
2022-09-30T02:42:47.027Z,100792.50
2022-09-30T02:46:06.665Z,100794.22
2022-09-30T02:49:20.623Z,100793.19
2022-09-30T02:52:36.171Z,100792.47
2022-09-30T02:56:09.835Z,100780.19
2022-09-30T02:59:14.790Z,100790.84
2022-09-30T03:02:19.165Z,100793.63
2022-09-30T03:05:22.875Z,100791.03
2022-09-30T03:08:28.283Z,100784.78
2022-09-30T03:11:33.826Z,100787.38
2022-09-30T03:15:03.231Z,100796.34
2022-09-30T03:18:30.876Z,100799.94
2022-09-30T03:22:02.030Z,100799.22
2022-09-30T03:25:25.074Z,100796.75
2022-09-30T03:28:35.882Z,100815.06
2022-09-30T03:31:55.259Z,100808.19
2022-09-30T03:35:17.519Z,100811.75
2022-09-30T03:38:41.222Z,100812.75
2022-09-30T03:41:54.182Z,100817.19
2022-09-30T03:45:07.155Z,100817.91
2022-09-30T03:48:16.506Z,100830.31
2022-09-30T03:51:21.916Z,100820.88
2022-09-30T03:54:25.973Z,100819.28
2022-09-30T03:57:31.757Z,100821.13
2022-09-30T04:00:35.449Z,100831.66
2022-09-30T04:03:38.991Z,100835.25
2022-09-30T04:06:42.618Z,100841.31
2022-09-30T04:09:46.245Z,100838.75
2022-09-30T04:12:54.603Z,100840.59
2022-09-30T04:15:58.544Z,100848.44
2022-09-30T04:19:02.251Z,100858.88
2022-09-30T04:22:05.887Z,100865.81
2022-09-30T04:25:10.501Z,100860.69
2022-09-30T04:28:15.374Z,100857.34
2022-09-30T04:31:19.627Z,100855.69
2022-09-30T04:34:23.159Z,100859.16
2022-09-30T04:37:26.751Z,100866.22
2022-09-30T04:40:30.233Z,100864.44
2022-09-30T04:43:35.954Z,100871.50
2022-09-30T04:46:39.510Z,100875.00
2022-09-30T04:49:43.079Z,100881.13
2022-09-30T04:52:46.743Z,100891.63
2022-09-30T04:55:50.928Z,100889.03
2022-09-30T04:58:55.885Z,100898.63
2022-09-30T05:01:59.440Z,100896.03
2022-09-30T05:05:03.987Z,100902.09
2022-09-30T05:08:07.801Z,100905.56
2022-09-30T05:11:17.495Z,100903.00
2022-09-30T05:14:22.423Z,100904.75
2022-09-30T05:17:26.072Z,100904.81
2022-09-30T05:20:30.111Z,100898.72
2022-09-30T05:23:34.531Z,100904.00
2022-09-30T05:26:38.155Z,100906.63
2022-09-30T05:29:43.287Z,100910.06
2022-09-30T05:32:46.911Z,100905.72
2022-09-30T05:35:50.738Z,100908.31
2022-09-30T05:38:54.626Z,100916.22
2022-09-30T05:41:58.602Z,100918.84
2022-09-30T05:45:03.739Z,100919.75
2022-09-30T05:48:07.945Z,100919.75
2022-09-30T05:51:12.797Z,100919.66
2022-09-30T05:54:17.027Z,100922.03
2022-09-30T05:57:21.050Z,100919.31
2022-09-30T06:00:25.978Z,100920.16
2022-09-30T06:03:29.535Z,100931.50
2022-09-30T06:06:33.050Z,100935.81
2022-09-30T06:09:37.033Z,100928.03
2022-09-30T06:12:41.325Z,100933.19
2022-09-30T06:15:57.165Z,100929.75
2022-09-30T06:19:00.826Z,100935.69
2022-09-30T06:22:04.470Z,100939.00
2022-09-30T06:25:09.143Z,100933.66
2022-09-30T06:28:13.111Z,100945.69
2022-09-30T06:31:18.125Z,100948.16
2022-09-30T06:34:21.690Z,100949.06
2022-09-30T06:37:26.070Z,100950.69
2022-09-30T06:40:29.630Z,100954.00
2022-09-30T06:43:41.024Z,100966.88
2022-09-30T06:46:59.874Z,100970.88
2022-09-30T06:50:03.574Z,100965.38
2022-09-30T06:53:09.719Z,100971.22
2022-09-30T06:56:13.850Z,100964.00
2022-09-30T06:59:18.726Z,100967.28
2022-09-30T07:02:23.894Z,100967.78
2022-09-30T07:05:28.227Z,100971.75
2022-09-30T07:08:34.958Z,100967.97
2022-09-30T07:11:39.611Z,100971.19
2022-09-30T07:14:43.218Z,100974.34
2022-09-30T07:17:53.028Z,100968.09
2022-09-30T07:20:58.535Z,100971.38
2022-09-30T07:24:02.611Z,100971.00
2022-09-30T07:27:06.328Z,100980.22
2022-09-30T07:30:21.518Z,100975.03
2022-09-30T07:33:32.680Z,100971.13
2022-09-30T07:36:38.843Z,100976.34
2022-09-30T07:39:43.139Z,100971.56
2022-09-30T07:42:46.668Z,100980.75
2022-09-30T07:45:51.758Z,100983.28
2022-09-30T07:49:01.500Z,100976.13
2022-09-30T07:52:05.892Z,100982.59
2022-09-30T07:55:10.051Z,100981.50
2022-09-30T07:58:13.758Z,100986.91
2022-09-30T08:01:17.622Z,100989.00
2022-09-30T08:04:24.285Z,100981.16
2022-09-30T08:07:27.816Z,100973.66
2022-09-30T08:10:36.162Z,100972.38
2022-09-30T08:13:40.056Z,100967.22
2022-09-30T08:16:44.256Z,100960.78
2022-09-30T08:19:49.495Z,100967.22
2022-09-30T08:22:54.722Z,100959.84
2022-09-30T08:26:03.815Z,100958.50
2022-09-30T08:29:08.246Z,100970.34
2022-09-30T08:32:12.742Z,100971.06
2022-09-30T08:35:18.413Z,100967.66
2022-09-30T08:38:21.951Z,100973.69
2022-09-30T08:42:19.087Z,100967.59
2022-09-30T08:45:59.440Z,100968.75
2022-09-30T08:49:17.573Z,100972.66
2022-09-30T08:52:37.367Z,100975.78
2022-09-30T08:55:48.875Z,100964.31
2022-09-30T08:58:57.227Z,100963.75
2022-09-30T09:02:17.540Z,100961.56
2022-09-30T09:05:40.340Z,100959.72
2022-09-30T09:09:09.840Z,100954.59
2022-09-30T09:12:31.104Z,100951.75
2022-09-30T09:15:52.048Z,100958.22
2022-09-30T09:19:11.450Z,100957.31
2022-09-30T09:22:15.687Z,100964.03
2022-09-30T09:25:28.118Z,100961.59
2022-09-30T09:28:41.594Z,100966.97
2022-09-30T09:31:45.485Z,100974.44
2022-09-30T09:34:56.810Z,100962.72
2022-09-30T09:38:26.240Z,100958.91
2022-09-30T09:41:45.044Z,100951.78
2022-09-30T09:44:57.781Z,100968.69
2022-09-30T09:48:01.396Z,100964.44
2022-09-30T09:51:20.974Z,100967.13
2022-09-30T09:54:28.711Z,100969.56
2022-09-30T09:57:33.870Z,100966.41
2022-09-30T10:00:55.312Z,100971.91
2022-09-30T10:04:17.878Z,100963.09
2022-09-30T10:07:22.364Z,100960.66
2022-09-30T10:10:27.022Z,100963.00
2022-09-30T10:13:42.742Z,100959.81
2022-09-30T10:16:46.410Z,100956.00
2022-09-30T10:19:56.202Z,100957.16
2022-09-30T10:23:11.437Z,100969.47
2022-09-30T10:26:22.257Z,100963.84
2022-09-30T10:29:33.396Z,100969.91
2022-09-30T10:32:37.748Z,100971.53
2022-09-30T10:36:03.971Z,100964.72
2022-09-30T10:39:18.206Z,100964.56
2022-09-30T10:42:26.996Z,100959.25
2022-09-30T10:45:41.368Z,100950.97
2022-09-30T10:48:54.391Z,100955.47
2022-09-30T10:51:59.913Z,100960.00
2022-09-30T10:55:13.961Z,100962.22
2022-09-30T10:58:31.974Z,100954.84
2022-09-30T11:01:44.891Z,100961.84
2022-09-30T11:04:58.996Z,100959.44
2022-09-30T11:08:12.203Z,100956.78
2022-09-30T11:11:23.020Z,100954.19
2022-09-30T11:14:43.523Z,100952.72
2022-09-30T11:17:58.672Z,100948.91
2022-09-30T11:21:10.067Z,100946.56
2022-09-30T11:24:30.158Z,100954.63
2022-09-30T11:27:51.761Z,100944.66
2022-09-30T11:31:09.357Z,100946.56
2022-09-30T11:34:37.639Z,100941.72
2022-09-30T11:38:03.855Z,100938.53
2022-09-30T11:41:21.035Z,100936.81
2022-09-30T11:44:35.527Z,100926.41
2022-09-30T11:48:03.470Z,100938.91
2022-09-30T11:51:21.019Z,100930.00
2022-09-30T11:54:46.873Z,100936.75
2022-09-30T11:58:08.430Z,100928.81
2022-09-30T12:01:30.498Z,100944.06
2022-09-30T12:04:40.647Z,100942.16
2022-09-30T12:07:51.127Z,100936.34
2022-09-30T12:10:58.803Z,100947.00
2022-09-30T12:14:12.756Z,100941.59
2022-09-30T12:17:31.397Z,100941.63
2022-09-30T12:20:42.888Z,100945.78
2022-09-30T12:23:59.017Z,100937.28
2022-09-30T12:27:03.526Z,100929.16
2022-09-30T12:30:19.392Z,100931.78
2022-09-30T12:33:51.286Z,100921.53
2022-09-30T12:37:22.553Z,100921.38
2022-09-30T12:40:52.358Z,100920.72
2022-09-30T12:44:41.102Z,100920.03
2022-09-30T12:47:51.245Z,100909.66
2022-09-30T12:50:58.735Z,100926.84
2022-09-30T12:54:12.998Z,100921.88
2022-09-30T12:57:25.455Z,100923.56
2022-09-30T13:00:34.824Z,100909.56
2022-09-30T13:03:53.363Z,100904.38
2022-09-30T13:07:23.230Z,100902.22
2022-09-30T13:10:31.267Z,100908.66
2022-09-30T13:14:02.111Z,100908.41
2022-09-30T13:17:36.294Z,100906.66
2022-09-30T13:20:56.523Z,100904.97
2022-09-30T13:24:00.680Z,100903.50
2022-09-30T13:27:15.666Z,100902.38
2022-09-30T13:30:46.708Z,100898.56
2022-09-30T13:34:11.544Z,100903.84
2022-09-30T13:37:39.620Z,100894.56
2022-09-30T13:41:01.661Z,100888.63
2022-09-30T13:44:16.114Z,100885.78
2022-09-30T13:47:29.488Z,100895.44
2022-09-30T13:50:46.981Z,100890.25
2022-09-30T13:53:55.364Z,100881.81
2022-09-30T13:57:00.966Z,100883.84
2022-09-30T14:00:12.696Z,100877.03
2022-09-30T14:03:44.804Z,100880.00
2022-09-30T14:07:07.656Z,100874.31
2022-09-30T14:10:42.172Z,100869.38
2022-09-30T14:14:07.775Z,100864.75
2022-09-30T14:17:37.932Z,100872.69
2022-09-30T14:21:06.142Z,100865.19
2022-09-30T14:24:16.216Z,100865.81
2022-09-30T14:27:46.680Z,100873.25
2022-09-30T14:31:04.289Z,100871.22
2022-09-30T14:34:14.176Z,100865.81
2022-09-30T14:37:29.123Z,100864.75
2022-09-30T14:40:36.995Z,100864.25
2022-09-30T14:43:49.255Z,100858.28
2022-09-30T14:47:00.252Z,100862.69
2022-09-30T14:50:05.108Z,100858.41
2022-09-30T14:53:27.054Z,100855.59
2022-09-30T14:56:35.540Z,100854.34
2022-09-30T14:59:43.741Z,100849.63
2022-09-30T15:02:48.027Z,100850.91
2022-09-30T15:05:52.123Z,100848.31
2022-09-30T15:09:05.257Z,100857.16
2022-09-30T15:12:17.856Z,100847.91
2022-09-30T15:15:37.452Z,100850.31
2022-09-30T15:18:47.983Z,100860.66
2022-09-30T15:21:56.324Z,100847.84
2022-09-30T15:25:01.902Z,100845.31
2022-09-30T15:28:09.052Z,100841.50
2022-09-30T15:31:24.826Z,100848.19
2022-09-30T15:34:30.462Z,100847.13
2022-09-30T15:37:35.192Z,100843.00
2022-09-30T15:40:49.537Z,100837.34
2022-09-30T15:43:54.818Z,100837.34
2022-09-30T15:47:08.168Z,100840.22
2022-09-30T15:50:38.684Z,100837.91
2022-09-30T15:53:50.126Z,100830.91
2022-09-30T15:56:55.423Z,100831.44
2022-09-30T16:00:02.243Z,100835.03
2022-09-30T16:03:28.961Z,100848.97
2022-09-30T16:06:37.476Z,100840.44
2022-09-30T16:09:43.116Z,100846.94
2022-09-30T16:12:49.536Z,100847.22
2022-09-30T16:15:55.562Z,100846.72
2022-09-30T16:19:02.373Z,100849.13
2022-09-30T16:22:06.279Z,100846.81
2022-09-30T16:25:21.104Z,100843.66
2022-09-30T16:28:26.344Z,100846.03
2022-09-30T16:31:31.174Z,100849.06
2022-09-30T16:34:39.562Z,100842.03
2022-09-30T16:37:44.222Z,100841.47
2022-09-30T16:40:47.910Z,100843.16
2022-09-30T16:43:52.842Z,100853.09
2022-09-30T16:46:56.931Z,100855.22
2022-09-30T16:50:00.671Z,100853.19
2022-09-30T16:53:04.593Z,100856.59
2022-09-30T16:56:12.684Z,100849.50
2022-09-30T16:59:19.731Z,100847.94
2022-09-30T17:02:23.354Z,100845.91
2022-09-30T17:05:28.251Z,100850.25
2022-09-30T17:08:32.126Z,100851.38
2022-09-30T17:11:38.116Z,100846.44
2022-09-30T17:14:44.014Z,100843.78
2022-09-30T17:17:48.094Z,100857.44
2022-09-30T17:20:53.148Z,100862.97
2022-09-30T17:23:57.961Z,100855.56
2022-09-30T17:27:01.706Z,100854.34
2022-09-30T17:30:09.730Z,100856.31
2022-09-30T17:33:13.516Z,100860.81
2022-09-30T17:36:19.011Z,100857.75
2022-09-30T17:39:22.606Z,100858.84
2022-09-30T17:42:43.621Z,100868.81
2022-09-30T17:45:52.373Z,100864.78
2022-09-30T17:48:57.902Z,100861.50
2022-09-30T17:52:01.793Z,100858.00
2022-09-30T17:55:06.138Z,100862.81
2022-09-30T17:58:11.608Z,100860.47
2022-09-30T18:01:18.766Z,100857.25
2022-09-30T18:04:23.382Z,100859.88
2022-09-30T18:07:28.149Z,100864.78
2022-09-30T18:10:31.816Z,100855.59
2022-09-30T18:13:35.598Z,100862.63
2022-09-30T18:16:41.542Z,100862.63
2022-09-30T18:19:45.603Z,100855.19
2022-09-30T18:22:49.214Z,100850.63
2022-09-30T18:25:54.696Z,100839.66
2022-09-30T18:28:59.164Z,100842.06
2022-09-30T18:32:04.358Z,100840.34
2022-09-30T18:35:12.316Z,100833.81
2022-09-30T18:38:16.202Z,100834.66
2022-09-30T18:41:20.062Z,100839.13
2022-09-30T18:44:23.659Z,100835.63
2022-09-30T18:47:29.284Z,100835.72
2022-09-30T18:50:34.604Z,100834.81
2022-09-30T18:53:38.862Z,100832.63
2022-09-30T18:56:44.166Z,100832.50
2022-09-30T18:59:48.016Z,100834.22
2022-09-30T19:02:53.904Z,100830.00
2022-09-30T19:05:57.790Z,100827.97
2022-09-30T19:09:01.387Z,100827.78
2022-09-30T19:12:05.532Z,100829.72
2022-09-30T19:15:13.415Z,100828.91
2022-09-30T19:18:18.647Z,100816.88
2022-09-30T19:21:23.635Z,100816.09
2022-09-30T19:24:28.479Z,100812.69
2022-09-30T19:27:33.210Z,100818.22
2022-09-30T19:30:42.263Z,100810.59
2022-09-30T19:33:56.141Z,100812.34
2022-09-30T19:37:00.321Z,100814.94
2022-09-30T19:40:16.162Z,100799.28
2022-09-30T19:43:23.792Z,100798.00
2022-09-30T19:46:28.547Z,100792.03
2022-09-30T19:49:33.709Z,100784.22
2022-09-30T19:52:45.395Z,100784.28
2022-09-30T19:56:02.065Z,100787.91
2022-09-30T19:59:06.327Z,100779.31
2022-09-30T20:02:12.889Z,100776.41
2022-09-30T20:05:18.574Z,100775.81
2022-09-30T20:08:22.447Z,100771.66
2022-09-30T20:11:26.434Z,100763.13
2022-09-30T20:14:47.365Z,100769.38
2022-09-30T20:17:50.920Z,100762.41
2022-09-30T20:20:56.308Z,100758.34
2022-09-30T20:23:59.980Z,100754.88
2022-09-30T20:27:03.773Z,100745.34
2022-09-30T20:30:08.750Z,100749.78
2022-09-30T20:33:17.190Z,100752.38
2022-09-30T20:36:22.789Z,100749.03
2022-09-30T20:39:26.361Z,100746.41
2022-09-30T20:42:32.843Z,100741.41
2022-09-30T20:46:00.299Z,100743.41
2022-09-30T20:49:04.889Z,100738.06
2022-09-30T20:52:10.279Z,100736.25
2022-09-30T20:55:13.844Z,100738.97
2022-09-30T20:58:17.479Z,100738.28
2022-09-30T21:01:24.935Z,100733.63
2022-09-30T21:04:28.902Z,100731.75
2022-09-30T21:07:35.983Z,100724.88
2022-09-30T21:10:39.596Z,100723.38
2022-09-30T21:13:44.938Z,100726.66
2022-09-30T21:16:48.607Z,100724.94
2022-09-30T21:19:52.308Z,100719.38
2022-09-30T21:22:57.430Z,100719.25
2022-09-30T21:26:02.594Z,100720.66
2022-09-30T21:29:06.372Z,100705.78
2022-09-30T21:32:10.011Z,100709.09
2022-09-30T21:35:15.134Z,100712.53
2022-09-30T21:38:20.876Z,100704.56
2022-09-30T21:41:24.479Z,100700.44
2022-09-30T21:44:28.126Z,100703.72
2022-09-30T21:47:31.826Z,100697.59
2022-09-30T21:50:36.315Z,100694.94
2022-09-30T21:53:41.924Z,100687.13
2022-09-30T21:56:45.560Z,100689.75
2022-09-30T21:59:50.548Z,100678.31
2022-09-30T22:02:54.363Z,100686.81
2022-09-30T22:06:00.572Z,100675.13
2022-09-30T22:09:05.776Z,100669.88
2022-09-30T22:12:09.707Z,100667.38
2022-09-30T22:15:13.311Z,100672.38
2022-09-30T22:18:19.060Z,100658.78
2022-09-30T22:21:23.273Z,100661.41
2022-09-30T22:24:28.332Z,100660.53
2022-09-30T22:27:32.859Z,100655.13
2022-09-30T22:30:36.543Z,100656.59
2022-09-30T22:33:57.791Z,100652.19
2022-09-30T22:37:18.892Z,100650.31
2022-09-30T22:40:23.835Z,100641.22
2022-09-30T22:43:28.280Z,100647.47
2022-09-30T22:46:34.771Z,100647.34
2022-09-30T22:49:38.517Z,100638.38
2022-09-30T22:52:42.551Z,100635.66
2022-09-30T22:55:47.518Z,100629.34
2022-09-30T22:58:51.083Z,100622.06
2022-09-30T23:01:55.468Z,100616.94
2022-09-30T23:04:59.743Z,100619.44
2022-09-30T23:08:04.285Z,100609.66
2022-09-30T23:11:10.810Z,100607.81
2022-09-30T23:14:14.728Z,100604.16
2022-09-30T23:17:18.292Z,100603.38
2022-09-30T23:20:21.972Z,100591.47
2022-09-30T23:23:25.857Z,100588.88
2022-09-30T23:26:31.885Z,100577.53
2022-09-30T23:29:35.765Z,100575.16
2022-09-30T23:32:39.428Z,100568.91
2022-09-30T23:35:46.879Z,100558.41
2022-09-30T23:38:50.543Z,100556.75
2022-09-30T23:41:57.028Z,100557.38
2022-09-30T23:45:00.684Z,100552.97
2022-09-30T23:48:04.432Z,100554.06
2022-09-30T23:51:08.942Z,100549.09
2022-09-30T23:54:12.477Z,100545.38
2022-09-30T23:57:17.486Z,100545.44
